createdAt,value
2023-01-17T00:02:15.295Z,60.70
2023-01-17T00:05:02.100Z,60.30
2023-01-17T00:07:49.286Z,58.70
2023-01-17T00:10:22.715Z,55.90
2023-01-17T00:12:53.798Z,62.80
2023-01-17T00:15:25.641Z,59.80
2023-01-17T00:17:54.488Z,61.70
2023-01-17T00:20:44.308Z,60.00
2023-01-17T00:23:38.795Z,53.90
2023-01-17T00:26:16.774Z,55.90
2023-01-17T00:28:46.056Z,53.40
2023-01-17T00:31:15.720Z,58.10
2023-01-17T00:33:44.041Z,61.00
2023-01-17T00:36:12.579Z,56.30
2023-01-17T00:38:43.691Z,58.20
2023-01-17T00:41:14.332Z,77.10
2023-01-17T00:44:01.180Z,73.30
2023-01-17T00:46:47.958Z,64.50
2023-01-17T00:49:34.643Z,58.60
2023-01-17T00:52:21.388Z,66.20
2023-01-17T00:55:08.047Z,65.70
2023-01-17T00:57:54.709Z,69.50
2023-01-17T01:00:41.643Z,64.60
2023-01-17T01:03:30.170Z,69.30
2023-01-17T01:06:17.061Z,57.90
2023-01-17T01:09:06.728Z,56.70
2023-01-17T01:11:53.465Z,52.80
2023-01-17T01:14:40.412Z,55.20
2023-01-17T01:17:30.598Z,59.20
2023-01-17T01:20:20.535Z,56.90
2023-01-17T01:23:07.201Z,52.20
2023-01-17T01:25:55.312Z,50.00
2023-01-17T01:28:42.468Z,51.50
2023-01-17T01:31:31.595Z,65.90
2023-01-17T01:33:59.723Z,59.30
2023-01-17T01:36:27.745Z,60.20
2023-01-17T01:38:56.940Z,62.00
2023-01-17T01:41:25.079Z,65.70
2023-01-17T01:43:55.839Z,55.90
2023-01-17T01:46:39.747Z,59.90
2023-01-17T01:49:21.713Z,59.20
2023-01-17T01:51:55.624Z,59.70
2023-01-17T01:54:44.776Z,65.70
2023-01-17T01:57:17.675Z,53.50
2023-01-17T01:59:51.860Z,60.30
2023-01-17T02:04:49.459Z,65.50
2023-01-17T02:07:28.899Z,65.30
2023-01-17T02:09:58.744Z,63.00
2023-01-17T02:12:27.677Z,69.10
2023-01-17T02:14:56.249Z,64.10
2023-01-17T02:17:52.617Z,57.20
2023-01-17T02:20:32.152Z,57.90
2023-01-17T02:23:26.257Z,62.00
2023-01-17T02:26:10.368Z,70.20
2023-01-17T02:29:06.990Z,60.10
2023-01-17T02:32:12.438Z,65.50
2023-01-17T02:34:47.668Z,53.70
2023-01-17T02:37:49.044Z,55.00
2023-01-17T02:40:25.168Z,50.70
2023-01-17T02:42:58.805Z,58.50
2023-01-17T02:45:27.194Z,54.30
2023-01-17T02:47:55.372Z,58.50
2023-01-17T02:50:49.452Z,56.40
2023-01-17T02:53:28.094Z,63.70
2023-01-17T02:56:32.713Z,57.90
2023-01-17T03:01:35.123Z,57.80
2023-01-17T03:04:22.209Z,55.20
2023-01-17T03:06:59.045Z,53.70
2023-01-17T03:09:30.943Z,54.40
2023-01-17T03:11:59.728Z,54.40
2023-01-17T03:14:31.095Z,55.90
2023-01-17T03:16:59.633Z,59.80
2023-01-17T03:19:27.745Z,57.00
2023-01-17T03:21:55.787Z,55.80
2023-01-17T03:24:23.937Z,59.20
2023-01-17T03:26:52.006Z,58.20
2023-01-17T03:29:20.495Z,58.30
2023-01-17T03:31:48.838Z,60.60
2023-01-17T03:34:16.939Z,54.20
2023-01-17T03:36:45.151Z,54.70
2023-01-17T03:39:13.323Z,59.90
2023-01-17T03:41:41.363Z,64.20
2023-01-17T03:44:09.656Z,60.60
2023-01-17T03:46:38.008Z,60.70
2023-01-17T03:49:06.347Z,52.90
2023-01-17T03:51:34.491Z,53.10
2023-01-17T03:54:02.664Z,55.00
2023-01-17T03:56:30.859Z,55.30
2023-01-17T03:58:59.025Z,55.00
2023-01-17T04:01:27.097Z,54.20
2023-01-17T04:03:55.447Z,55.10
2023-01-17T04:06:28.545Z,55.10
2023-01-17T04:08:56.611Z,51.00
2023-01-17T04:11:27.972Z,56.30
2023-01-17T04:13:58.680Z,58.20
2023-01-17T04:16:30.746Z,52.20
2023-01-17T04:18:59.015Z,59.10
2023-01-17T04:21:27.263Z,67.70
2023-01-17T04:23:55.326Z,66.60
2023-01-17T04:26:23.751Z,51.00
2023-01-17T04:28:51.899Z,60.40
2023-01-17T04:31:20.124Z,55.80
2023-01-17T04:33:48.280Z,50.30
2023-01-17T04:36:16.432Z,52.60
2023-01-17T04:38:44.725Z,49.60
2023-01-17T04:41:13.259Z,55.00
2023-01-17T04:43:41.351Z,53.20
2023-01-17T04:46:11.016Z,48.70
2023-01-17T04:48:39.363Z,55.80
2023-01-17T04:51:07.652Z,54.80
2023-01-17T04:53:35.942Z,59.80
2023-01-17T04:56:04.560Z,49.20
2023-01-17T04:58:33.503Z,59.30
2023-01-17T05:01:04.201Z,56.00
2023-01-17T05:03:33.427Z,63.80
2023-01-17T05:06:01.896Z,57.30
2023-01-17T05:08:30.404Z,64.60
2023-01-17T05:10:58.735Z,63.40
2023-01-17T05:13:30.278Z,68.40
2023-01-17T05:15:58.832Z,89.00
2023-01-17T05:18:27.269Z,84.60
2023-01-17T05:21:01.700Z,86.30
2023-01-17T05:23:30.244Z,63.10
2023-01-17T05:25:58.535Z,70.40
2023-01-17T05:28:26.886Z,75.40
2023-01-17T05:30:55.311Z,62.60
2023-01-17T05:33:23.468Z,60.50
2023-01-17T05:35:52.004Z,64.10
2023-01-17T05:38:20.472Z,58.90
2023-01-17T05:40:51.028Z,66.60
2023-01-17T05:43:19.845Z,56.10
2023-01-17T05:45:51.652Z,66.40
2023-01-17T05:48:20.683Z,67.80
2023-01-17T05:50:48.979Z,65.20
2023-01-17T05:53:17.764Z,67.30
2023-01-17T05:55:46.045Z,59.50
2023-01-17T05:58:17.436Z,68.40
2023-01-17T06:00:45.872Z,61.80
2023-01-17T06:03:14.227Z,61.70
2023-01-17T06:05:43.016Z,64.90
2023-01-17T06:08:11.439Z,68.90
2023-01-17T06:10:40.070Z,70.40
2023-01-17T06:13:15.375Z,74.00
2023-01-17T06:15:46.848Z,68.70
2023-01-17T06:18:17.547Z,72.20
2023-01-17T06:20:45.834Z,62.50
2023-01-17T06:23:16.737Z,61.30
2023-01-17T06:25:46.846Z,71.80
2023-01-17T06:28:17.692Z,66.70
2023-01-17T06:30:46.361Z,74.80
2023-01-17T06:33:15.127Z,73.20
2023-01-17T06:35:51.038Z,71.00
2023-01-17T06:38:19.644Z,95.50
2023-01-17T06:40:47.887Z,107.70
2023-01-17T06:43:16.252Z,75.10
2023-01-17T06:45:49.358Z,73.50
2023-01-17T06:48:19.141Z,73.80
2023-01-17T06:50:49.902Z,130.50
2023-01-17T06:53:18.284Z,87.30
2023-01-17T06:55:46.833Z,85.00
2023-01-17T06:58:15.127Z,83.70
2023-01-17T07:00:44.131Z,76.40
2023-01-17T07:03:20.182Z,73.40
2023-01-17T07:05:49.079Z,69.90
2023-01-17T07:08:22.616Z,77.90
2023-01-17T07:11:01.625Z,71.20
2023-01-17T07:13:36.218Z,67.90
2023-01-17T07:16:06.213Z,70.20
2023-01-17T07:18:35.294Z,71.10
2023-01-17T07:21:03.372Z,67.20
2023-01-17T07:23:31.623Z,65.80
2023-01-17T07:26:01.179Z,73.20
2023-01-17T07:28:29.548Z,58.90
2023-01-17T07:31:08.071Z,69.40
2023-01-17T07:33:36.606Z,72.90
2023-01-17T07:36:07.604Z,83.60
2023-01-17T07:38:36.139Z,84.90
2023-01-17T07:41:04.483Z,74.20
2023-01-17T07:43:32.674Z,72.60
2023-01-17T07:46:02.193Z,73.30
2023-01-17T07:48:30.982Z,68.70
2023-01-17T07:51:02.011Z,61.50
2023-01-17T07:53:33.078Z,71.70
2023-01-17T07:56:06.366Z,71.00
2023-01-17T07:58:35.810Z,76.80
2023-01-17T08:01:07.356Z,75.60
2023-01-17T08:03:40.183Z,74.30
2023-01-17T08:06:23.893Z,63.00
2023-01-17T08:08:56.438Z,62.10
2023-01-17T08:11:25.200Z,65.10
2023-01-17T08:13:59.474Z,59.90
2023-01-17T08:16:28.857Z,56.10
2023-01-17T08:18:59.749Z,51.30
2023-01-17T08:21:31.067Z,48.20
2023-01-17T08:23:59.298Z,57.40
2023-01-17T08:26:27.658Z,53.20
2023-01-17T08:29:00.269Z,54.10
2023-01-17T08:31:30.729Z,58.00
2023-01-17T08:34:01.693Z,63.70
2023-01-17T08:36:31.316Z,59.00
2023-01-17T08:38:59.787Z,59.70
2023-01-17T08:41:28.256Z,56.00
2023-01-17T08:43:56.568Z,57.00
2023-01-17T08:46:24.959Z,51.90
2023-01-17T08:48:58.756Z,47.50
2023-01-17T08:51:27.616Z,45.50
2023-01-17T08:53:56.823Z,42.70
2023-01-17T08:56:27.967Z,39.00
2023-01-17T08:58:56.245Z,37.00
2023-01-17T09:01:24.752Z,36.40
2023-01-17T09:03:56.601Z,37.60
2023-01-17T09:06:24.936Z,36.80
2023-01-17T09:08:54.940Z,41.40
2023-01-17T09:11:23.298Z,42.20
2023-01-17T09:13:51.560Z,42.10
2023-01-17T09:16:20.052Z,43.40
2023-01-17T09:18:57.900Z,39.50
2023-01-17T09:21:27.093Z,36.80
2023-01-17T09:23:55.610Z,42.30
2023-01-17T09:26:29.364Z,41.30
2023-01-17T09:31:27.955Z,40.50
2023-01-17T09:33:57.774Z,36.70
2023-01-17T09:36:31.967Z,36.50
2023-01-17T09:39:01.999Z,33.90
2023-01-17T09:41:33.460Z,29.30
2023-01-17T09:44:27.667Z,31.60
2023-01-17T09:49:35.731Z,25.10
2023-01-17T09:52:14.935Z,29.40
2023-01-17T09:54:45.520Z,22.10
2023-01-17T09:57:21.268Z,29.00
2023-01-17T10:00:13.201Z,25.00
2023-01-17T10:03:09.905Z,23.60
2023-01-17T10:05:48.681Z,40.10
2023-01-17T10:08:26.610Z,39.20
2023-01-17T10:11:32.374Z,38.60
2023-01-17T10:14:37.195Z,28.10
2023-01-17T10:17:29.771Z,59.00
2023-01-17T10:20:34.171Z,23.20
2023-01-17T10:23:32.018Z,22.30
2023-01-17T10:26:09.101Z,20.60
2023-01-17T10:28:49.667Z,16.00
2023-01-17T10:31:25.040Z,16.10
2023-01-17T10:34:03.816Z,15.80
2023-01-17T10:36:38.702Z,14.10
2023-01-17T10:39:29.338Z,12.20
2023-01-17T10:42:27.177Z,12.70
2023-01-17T10:45:15.399Z,8.70
2023-01-17T10:47:54.140Z,10.10
2023-01-17T10:50:24.792Z,8.60
2023-01-17T10:52:53.400Z,11.30
2023-01-17T10:55:31.340Z,8.80
2023-01-17T10:57:59.513Z,8.40
2023-01-17T11:00:52.553Z,8.50
2023-01-17T11:03:29.126Z,8.70
2023-01-17T11:06:20.291Z,8.00
2023-01-17T11:09:03.558Z,6.30
2023-01-17T11:11:37.617Z,3.90
2023-01-17T11:14:17.552Z,2.70
2023-01-17T11:16:46.569Z,3.30
2023-01-17T11:19:28.640Z,3.30
2023-01-17T11:22:04.888Z,3.60
2023-01-17T11:24:42.180Z,3.90
2023-01-17T11:27:25.519Z,3.70
2023-01-17T11:30:16.569Z,6.40
2023-01-17T11:32:58.427Z,5.90
2023-01-17T11:35:31.114Z,5.20
2023-01-17T11:37:59.313Z,4.40
2023-01-17T11:40:36.613Z,3.40
2023-01-17T11:43:28.450Z,3.40
2023-01-17T11:46:20.614Z,1.60
2023-01-17T11:48:56.989Z,2.30
2023-01-17T11:51:41.584Z,2.70
2023-01-17T11:54:40.458Z,3.20
2023-01-17T11:57:23.999Z,2.20
2023-01-17T11:59:59.677Z,4.50
2023-01-17T12:02:33.619Z,3.70
2023-01-17T12:05:01.646Z,2.90
2023-01-17T12:07:58.939Z,2.90
2023-01-17T12:10:29.996Z,3.90
2023-01-17T12:13:51.433Z,8.50
2023-01-17T12:16:42.106Z,9.80
2023-01-17T12:19:16.420Z,4.60
2023-01-17T12:22:03.303Z,4.90
2023-01-17T12:24:47.918Z,4.30
2023-01-17T12:27:34.655Z,3.20
2023-01-17T12:30:24.929Z,2.60
2023-01-17T12:33:19.362Z,3.80
2023-01-17T12:35:58.528Z,4.30
2023-01-17T12:38:33.612Z,5.90
2023-01-17T12:41:26.601Z,5.10
2023-01-17T12:43:59.052Z,6.00
2023-01-17T12:46:34.076Z,8.00
2023-01-17T12:49:40.740Z,11.30
2023-01-17T12:52:25.162Z,5.20
2023-01-17T12:55:03.191Z,8.70
2023-01-17T12:57:42.109Z,3.30
2023-01-17T13:00:23.255Z,10.30
2023-01-17T13:02:56.743Z,3.20
2023-01-17T13:08:06.760Z,5.40
2023-01-17T13:10:51.183Z,4.40
2023-01-17T13:13:26.094Z,5.20
2023-01-17T13:16:17.691Z,10.90
2023-01-17T13:18:51.783Z,21.40
2023-01-17T13:21:34.577Z,6.60
2023-01-17T13:24:17.524Z,6.50
2023-01-17T13:27:20.583Z,4.80
2023-01-17T13:30:34.695Z,5.00
2023-01-17T13:33:37.240Z,5.00
2023-01-17T13:36:14.874Z,5.80
2023-01-17T13:38:57.654Z,4.00
2023-01-17T13:41:47.732Z,8.20
2023-01-17T13:44:22.506Z,6.80
2023-01-17T13:47:10.859Z,4.10
2023-01-17T13:49:44.706Z,7.00
2023-01-17T13:52:23.165Z,3.70
2023-01-17T13:54:56.830Z,7.20
2023-01-17T13:57:30.040Z,4.90
2023-01-17T14:02:46.611Z,5.90
2023-01-17T14:05:21.346Z,6.80
2023-01-17T14:08:02.336Z,5.90
2023-01-17T14:10:41.662Z,9.80
2023-01-17T14:13:33.918Z,12.30
2023-01-17T14:16:05.500Z,11.40
2023-01-17T14:18:36.877Z,13.20
2023-01-17T14:21:35.711Z,9.10
2023-01-17T14:24:06.601Z,8.10
2023-01-17T14:26:56.293Z,6.60
2023-01-17T14:29:42.815Z,6.30
2023-01-17T14:32:13.976Z,7.80
2023-01-17T14:34:45.974Z,10.70
2023-01-17T14:37:33.505Z,10.60
2023-01-17T14:40:02.289Z,9.90
2023-01-17T14:42:33.762Z,15.80
2023-01-17T14:45:13.932Z,18.40
2023-01-17T14:47:46.023Z,19.00
2023-01-17T14:50:30.008Z,14.40
2023-01-17T14:55:48.527Z,10.60
2023-01-17T14:58:21.201Z,13.60
2023-01-17T15:00:51.749Z,12.90
2023-01-17T15:03:20.384Z,11.20
2023-01-17T15:05:51.985Z,20.70
2023-01-17T15:08:23.885Z,36.90
2023-01-17T15:11:03.161Z,45.10
2023-01-17T15:13:44.698Z,38.50
2023-01-17T15:16:25.606Z,25.50
2023-01-17T15:18:55.985Z,43.40
2023-01-17T15:21:42.541Z,39.20
2023-01-17T15:24:21.515Z,29.10
2023-01-17T15:26:52.692Z,39.30
2023-01-17T15:29:26.690Z,100.90
2023-01-17T15:32:01.188Z,63.10
2023-01-17T15:34:30.514Z,76.70
2023-01-17T15:37:08.123Z,85.70
2023-01-17T15:39:39.586Z,63.50
2023-01-17T15:42:38.757Z,66.30
2023-01-17T15:45:13.059Z,111.50
2023-01-17T15:47:41.444Z,74.40
2023-01-17T15:50:26.558Z,82.70
2023-01-17T15:53:01.032Z,105.00
2023-01-17T15:55:34.948Z,287.70
2023-01-17T15:58:05.359Z,138.80
2023-01-17T16:00:40.594Z,161.70
2023-01-17T16:03:23.495Z,110.70
2023-01-17T16:05:54.220Z,98.10
2023-01-17T16:08:31.179Z,75.40
2023-01-17T16:11:02.429Z,68.30
2023-01-17T16:13:43.433Z,68.30
2023-01-17T16:16:17.831Z,48.40
2023-01-17T16:18:57.755Z,37.10
2023-01-17T16:21:30.417Z,28.80
2023-01-17T16:24:00.119Z,42.20
2023-01-17T16:26:29.409Z,50.70
2023-01-17T16:28:57.882Z,71.20
2023-01-17T16:31:26.000Z,52.40
2023-01-17T16:33:59.372Z,49.90
2023-01-17T16:36:27.784Z,36.90
2023-01-17T16:38:56.102Z,40.30
2023-01-17T16:41:24.375Z,38.10
2023-01-17T16:44:04.969Z,55.60
2023-01-17T16:46:36.229Z,49.20
2023-01-17T16:49:05.088Z,44.20
2023-01-17T16:51:34.514Z,42.80
2023-01-17T16:54:05.152Z,47.20
2023-01-17T16:56:33.394Z,45.10
2023-01-17T16:59:01.635Z,43.30
2023-01-17T17:01:30.038Z,43.20
2023-01-17T17:03:58.095Z,40.70
2023-01-17T17:06:26.325Z,48.40
2023-01-17T17:08:54.402Z,76.10
2023-01-17T17:11:23.896Z,70.40
2023-01-17T17:13:52.273Z,83.00
2023-01-17T17:16:32.919Z,75.30
2023-01-17T17:19:07.595Z,74.90
2023-01-17T17:21:40.390Z,62.00
2023-01-17T17:24:12.725Z,44.00
2023-01-17T17:26:41.092Z,44.30
2023-01-17T17:29:12.112Z,32.10
2023-01-17T17:31:41.537Z,35.20
2023-01-17T17:34:12.110Z,134.60
2023-01-17T17:36:41.225Z,47.50
2023-01-17T17:39:14.927Z,22.20
2023-01-17T17:41:45.932Z,20.20
2023-01-17T17:44:17.572Z,20.30
2023-01-17T17:46:49.242Z,16.00
2023-01-17T17:49:17.314Z,21.70
2023-01-17T17:51:45.373Z,25.00
2023-01-17T17:54:15.016Z,32.90
2023-01-17T17:56:49.476Z,31.00
2023-01-17T17:59:20.349Z,36.50
2023-01-17T18:01:51.935Z,33.60
2023-01-17T18:04:20.063Z,29.00
2023-01-17T18:06:48.614Z,22.30
2023-01-17T18:09:16.865Z,26.80
2023-01-17T18:11:48.383Z,19.30
2023-01-17T18:14:17.793Z,15.00
2023-01-17T18:16:47.122Z,18.10
2023-01-17T18:19:22.238Z,17.50
2023-01-17T18:21:51.504Z,14.80
2023-01-17T18:24:24.532Z,17.60
2023-01-17T18:26:54.429Z,15.60
2023-01-17T18:29:24.028Z,14.30
2023-01-17T18:31:53.177Z,11.30
2023-01-17T18:34:24.689Z,11.70
2023-01-17T18:36:53.197Z,13.20
2023-01-17T18:39:27.361Z,22.10
2023-01-17T18:41:55.616Z,20.30
2023-01-17T18:44:24.535Z,18.40
2023-01-17T18:46:55.888Z,18.00
2023-01-17T18:49:24.034Z,24.80
2023-01-17T18:51:52.103Z,22.60
2023-01-17T18:54:20.690Z,22.00
2023-01-17T18:56:48.997Z,21.70
2023-01-17T18:59:21.487Z,25.00
2023-01-17T19:01:50.179Z,25.50
2023-01-17T19:04:18.932Z,28.40
2023-01-17T19:06:48.237Z,28.10
2023-01-17T19:09:17.316Z,26.90
2023-01-17T19:11:47.459Z,35.00
2023-01-17T19:14:15.901Z,27.00
2023-01-17T19:16:45.004Z,20.60
2023-01-17T19:19:15.393Z,18.40
2023-01-17T19:21:44.040Z,17.40
2023-01-17T19:24:13.307Z,23.60
2023-01-17T19:26:43.122Z,22.00
2023-01-17T19:29:12.330Z,18.40
2023-01-17T19:31:42.766Z,15.60
2023-01-17T19:34:14.246Z,23.30
2023-01-17T19:36:42.578Z,18.40
2023-01-17T19:39:10.865Z,20.80
2023-01-17T19:41:44.758Z,22.10
2023-01-17T19:44:14.591Z,19.00
2023-01-17T19:46:46.041Z,18.90
2023-01-17T19:49:16.522Z,21.50
2023-01-17T19:51:44.765Z,24.80
2023-01-17T19:54:15.236Z,24.20
2023-01-17T19:56:43.509Z,20.70
2023-01-17T19:59:14.089Z,20.30
2023-01-17T20:01:45.114Z,24.20
2023-01-17T20:04:18.162Z,21.70
2023-01-17T20:06:46.913Z,27.30
2023-01-17T20:09:14.935Z,23.00
2023-01-17T20:11:46.850Z,22.10
2023-01-17T20:14:15.360Z,19.70
2023-01-17T20:16:47.535Z,26.80
2023-01-17T20:19:16.467Z,26.20
2023-01-17T20:21:44.536Z,19.60
2023-01-17T20:24:16.857Z,19.50
2023-01-17T20:26:46.032Z,21.40
2023-01-17T20:29:15.952Z,20.00
2023-01-17T20:31:45.634Z,24.90
2023-01-17T20:34:14.612Z,21.40
2023-01-17T20:36:42.788Z,20.40
2023-01-17T20:39:17.082Z,21.60
2023-01-17T20:41:50.029Z,19.80
2023-01-17T20:44:23.009Z,20.10
2023-01-17T20:46:51.288Z,21.50
2023-01-17T20:49:20.049Z,21.40
2023-01-17T20:51:48.346Z,19.50
2023-01-17T20:54:18.636Z,20.80
2023-01-17T20:56:47.836Z,17.80
2023-01-17T20:59:21.803Z,15.80
2023-01-17T21:01:50.518Z,19.40
2023-01-17T21:04:25.848Z,15.80
2023-01-17T21:06:54.785Z,16.50
2023-01-17T21:09:23.671Z,22.00
2023-01-17T21:11:52.045Z,25.50
2023-01-17T21:14:21.805Z,25.40
2023-01-17T21:16:53.006Z,16.00
2023-01-17T21:19:21.286Z,14.60
2023-01-17T21:21:50.236Z,12.90
2023-01-17T21:24:19.613Z,13.50
2023-01-17T21:26:49.686Z,14.50
2023-01-17T21:29:17.825Z,16.50
2023-01-17T21:31:46.081Z,19.70
2023-01-17T21:34:14.305Z,16.00
2023-01-17T21:36:43.209Z,17.00
2023-01-17T21:39:15.841Z,18.50
2023-01-17T21:41:47.981Z,23.70
2023-01-17T21:44:19.776Z,15.30
2023-01-17T21:46:49.357Z,18.60
2023-01-17T21:49:17.695Z,19.90
2023-01-17T21:51:54.836Z,17.60
2023-01-17T21:54:47.066Z,17.00
2023-01-17T21:57:39.486Z,19.80
2023-01-17T22:00:11.018Z,17.40
2023-01-17T22:02:46.980Z,30.00
2023-01-17T22:05:16.865Z,40.20
2023-01-17T22:08:05.420Z,25.80
2023-01-17T22:10:44.517Z,15.40
2023-01-17T22:13:15.392Z,16.10
2023-01-17T22:15:44.609Z,17.60
2023-01-17T22:18:14.523Z,21.30
2023-01-17T22:20:42.982Z,18.00
2023-01-17T22:23:12.051Z,18.80
2023-01-17T22:25:40.233Z,14.90
2023-01-17T22:28:08.383Z,15.10
2023-01-17T22:30:36.407Z,14.80
2023-01-17T22:33:04.576Z,18.20
2023-01-17T22:35:32.968Z,11.20
2023-01-17T22:38:01.590Z,16.10
2023-01-17T22:40:31.649Z,19.10
2023-01-17T22:42:59.890Z,15.80
2023-01-17T22:45:31.207Z,13.70
2023-01-17T22:47:59.195Z,13.70
2023-01-17T22:50:29.629Z,16.10
2023-01-17T22:52:58.098Z,12.40
2023-01-17T22:55:26.358Z,14.90
2023-01-17T22:57:54.617Z,17.10
2023-01-17T23:00:22.950Z,15.50
2023-01-17T23:02:51.126Z,21.70
2023-01-17T23:05:20.251Z,25.90
2023-01-17T23:07:50.250Z,19.20
2023-01-17T23:10:38.387Z,20.20
2023-01-17T23:13:10.352Z,23.50
2023-01-17T23:15:59.673Z,16.80
2023-01-17T23:18:46.706Z,17.00
2023-01-17T23:21:18.031Z,12.60
2023-01-17T23:23:46.475Z,15.80
2023-01-17T23:26:14.593Z,13.00
2023-01-17T23:28:42.820Z,12.90
2023-01-17T23:31:12.539Z,13.30
2023-01-17T23:33:40.863Z,14.90
2023-01-17T23:36:09.426Z,15.10
2023-01-17T23:38:40.660Z,13.00
2023-01-17T23:41:27.749Z,13.20
2023-01-17T23:43:58.702Z,14.40
2023-01-17T23:46:27.288Z,14.60
2023-01-17T23:48:55.441Z,15.90
2023-01-17T23:51:23.521Z,13.40
2023-01-17T23:53:57.347Z,19.30
2023-01-17T23:56:25.770Z,14.70
2023-01-17T23:58:54.185Z,15.40
